Time;durP1;ratioP1;P1;durP2;ratioP2;P2;SDS_P1;SDS_P2;PMS_P1;PMS_P2;Temp;Humidity;BMP_temperature;BMP_pressure;BME280_temperature;BME280_humidity;BME280_pressure;Samples;Min_cycle;Max_cycle;Signal;HPM_P1;HPM_P2
2022/03/20 00:00:07;;;;;;;;;;;;;;;22.10;34.64;97173.63;2073035;28;992;-56
2022/03/20 00:01:09;;;;;;;;;;;;;;;22.16;34.59;97181.00;2073109;28;1601;-56
2022/03/20 00:02:11;;;;;;;;;;;;;;;22.16;34.81;97172.97;2081048;28;1910;-57
2022/03/20 00:03:14;;;;;;;;;;;;;;;22.20;34.99;97176.22;2080305;28;1470;-57
2022/03/20 00:04:16;;;;;;;;;;;;;;;22.17;34.86;97177.38;2080837;28;1593;-56
2022/03/20 00:05:18;;;;;;;;;;;;;;;22.18;34.91;97175.53;2081625;28;1011;-57
2022/03/20 00:06:19;;;;;;;;;;;;;;;22.21;34.88;97178.69;2076930;28;1167;-58
2022/03/20 00:07:21;;;;;;;;;;;;;;;22.28;34.53;97178.88;2080737;28;1160;-57
2022/03/20 00:08:23;;;;;;;;;;;;;;;22.30;34.60;97182.22;2081629;28;1014;-57
2022/03/20 00:09:24;;;;;;;;;;;;;;;22.30;34.50;97178.72;2081601;28;1057;-57
2022/03/20 00:10:26;;;;;;;;;;;;;;;22.35;34.35;97184.44;2081461;28;1076;-49
2022/03/20 00:11:28;;;;;;;;;;;;;;;22.30;34.40;97179.56;2081307;28;1115;-46
2022/03/20 00:12:29;;;;;;;;;;;;;;;22.29;34.30;97183.25;2080708;28;1585;-47
2022/03/20 00:13:31;;;;;;;;;;;;;;;22.23;34.40;97181.22;2080723;28;1430;-49
2022/03/20 00:14:33;;;;;;;;;;;;;;;22.22;34.33;97185.72;2081388;28;984;-49
2022/03/20 00:15:35;;;;;;;;;;;;;;;22.26;34.60;97186.25;2080972;28;1502;-48
2022/03/20 00:16:37;;;;;;;;;;;;;;;22.27;34.37;97181.72;2081397;28;1096;-51
2022/03/20 00:17:38;;;;;;;;;;;;;;;22.26;34.70;97182.75;2067576;28;1186;-47
2022/03/20 00:18:40;;;;;;;;;;;;;;;22.23;34.50;97182.06;2072564;28;1155;-48
2022/03/20 00:19:41;;;;;;;;;;;;;;;22.23;34.58;97182.06;2081561;28;1007;-49
2022/03/20 00:20:45;;;;;;;;;;;;;;;22.28;34.33;97180.72;2080361;28;1559;-50
2022/03/20 00:21:46;;;;;;;;;;;;;;;22.27;34.56;97184.41;2081408;28;988;-45
2022/03/20 00:22:48;;;;;;;;;;;;;;;22.25;34.44;97183.72;2080805;28;1992;-46
2022/03/20 00:23:49;;;;;;;;;;;;;;;22.25;34.64;97173.84;2081114;28;1182;-46
2022/03/20 00:24:51;;;;;;;;;;;;;;;22.23;34.60;97178.56;2081407;28;942;-46
2022/03/20 00:25:54;;;;;;;;;;;;;;;22.28;34.37;97186.06;2081463;28;1014;-47
2022/03/20 00:26:57;;;;;;;;;;;;;;;22.30;34.30;97184.06;2081354;28;1084;-47
2022/03/20 00:27:58;;;;;;;;;;;;;;;22.31;34.51;97180.38;2081299;28;1144;-46
2022/03/20 00:29:00;;;;;;;;;;;;;;;22.33;34.45;97183.75;2076364;28;1319;-51
2022/03/20 00:30:02;;;;;;;;;;;;;;;22.32;34.36;97188.25;2080862;28;1107;-46
2022/03/20 00:31:04;;;;;;;;;;;;;;;22.28;34.52;97180.72;2079670;28;1529;-46
2022/03/20 00:32:06;;;;;;;;;;;;;;;22.28;34.53;97178.03;2081545;28;1057;-46
2022/03/20 00:33:08;;;;;;;;;;;;;;;22.28;34.47;97176.19;2081271;28;1031;-49
2022/03/20 00:34:10;;;;;;;;;;;;;;;22.31;34.48;97181.22;2080979;28;1112;-45
2022/03/20 00:35:11;;;;;;;;;;;;;;;22.29;34.51;97182.41;2080222;28;1586;-51
2022/03/20 00:36:13;;;;;;;;;;;;;;;22.27;34.62;97187.06;2081121;28;1611;-47
2022/03/20 00:37:15;;;;;;;;;;;;;;;22.27;34.31;97179.88;2080716;28;988;-47
2022/03/20 00:38:16;;;;;;;;;;;;;;;22.27;34.43;97173.72;2081213;28;1116;-48
2022/03/20 00:39:18;;;;;;;;;;;;;;;22.25;34.66;97179.22;2067472;28;1027;-48
2022/03/20 00:40:20;;;;;;;;;;;;;;;22.30;34.45;97181.41;2072396;28;1392;-46
2022/03/20 00:41:21;;;;;;;;;;;;;;;22.28;34.58;97180.72;2081107;28;1151;-46
2022/03/20 00:42:23;;;;;;;;;;;;;;;22.26;34.57;97180.06;2080318;28;1977;-46
2022/03/20 00:43:24;;;;;;;;;;;;;;;22.26;34.74;97182.75;2080249;28;1534;-47
2022/03/20 00:44:26;;;;;;;;;;;;;;;22.21;34.82;97173.34;2079311;28;1497;-47
2022/03/20 00:45:28;;;;;;;;;;;;;;;22.27;34.47;97174.53;2078661;28;1569;-47
2022/03/20 00:46:30;;;;;;;;;;;;;;;22.26;34.80;97167.53;2074587;28;1586;-50
2022/03/20 00:47:31;;;;;;;;;;;;;;;22.29;34.80;97171.72;2073010;28;1131;-48
2022/03/20 00:48:33;;;;;;;;;;;;;;;22.20;35.04;97170.88;2072138;28;1115;-48
2022/03/20 00:49:35;;;;;;;;;;;;;;;22.19;34.68;97172.69;2072309;28;1116;-48
2022/03/20 00:50:37;;;;;;;;;;;;;;;22.22;34.75;97166.16;2074243;28;1501;-47
2022/03/20 00:51:39;;;;;;;;;;;;;;;22.20;34.92;97173.53;2080677;28;995;-48
2022/03/20 00:52:40;;;;;;;;;;;;;;;22.23;34.78;97174.03;2081433;28;1112;-47
2022/03/20 00:53:42;;;;;;;;;;;;;;;22.27;34.66;97171.03;2080763;28;1124;-47
2022/03/20 00:54:43;;;;;;;;;;;;;;;22.27;34.87;97171.03;2080602;28;1092;-47
2022/03/20 00:55:45;;;;;;;;;;;;;;;22.27;34.67;97168.38;2080455;28;1439;-49
2022/03/20 00:56:46;;;;;;;;;;;;;;;22.29;34.71;97166.38;2081163;28;1053;-47
2022/03/20 00:57:48;;;;;;;;;;;;;;;22.27;34.67;97173.72;2081099;28;1139;-47
2022/03/20 00:58:49;;;;;;;;;;;;;;;22.30;34.75;97170.72;2081104;28;1110;-47
2022/03/20 00:59:51;;;;;;;;;;;;;;;22.28;34.68;97175.38;2080818;28;1031;-50
2022/03/20 01:00:53;;;;;;;;;;;;;;;22.29;34.84;97171.72;2080298;28;1491;-50
2022/03/20 01:01:55;;;;;;;;;;;;;;;22.31;34.66;97177.72;2075943;28;1385;-46
2022/03/20 01:02:57;;;;;;;;;;;;;;;22.25;34.90;97173.84;2080982;28;1956;-46
2022/03/20 01:03:59;;;;;;;;;;;;;;;22.24;34.99;97174.88;2071724;28;1093;-47
2022/03/20 01:05:00;;;;;;;;;;;;;;;22.23;34.81;97179.38;2073488;28;1566;-46
2022/03/20 01:06:02;;;;;;;;;;;;;;;22.27;34.62;97176.38;2076799;28;1659;-47
2022/03/20 01:07:04;;;;;;;;;;;;;;;22.22;34.89;97172.34;2080602;28;1120;-45
2022/03/20 01:08:05;;;;;;;;;;;;;;;22.21;34.97;97172.53;2081163;28;1027;-47
2022/03/20 01:09:09;;;;;;;;;;;;;;;22.20;34.90;97169.03;2081060;28;1154;-46
2022/03/20 01:10:11;;;;;;;;;;;;;;;22.22;34.95;97174.19;2080944;28;1494;-49
2022/03/20 01:11:12;;;;;;;;;;;;;;;22.20;35.14;97169.03;2080959;28;1104;-48
2022/03/20 01:12:14;;;;;;;;;;;;;;;22.17;34.99;97172.03;2070417;28;1544;-52
2022/03/20 01:13:16;;;;;;;;;;;;;;;22.15;34.97;97171.31;2070485;28;1827;-49
2022/03/20 01:14:18;;;;;;;;;;;;;;;22.15;35.06;97170.47;2079905;28;1577;-47
2022/03/20 01:15:19;;;;;;;;;;;;;;;22.17;35.09;97169.34;2080061;28;1515;-46
2022/03/20 01:16:23;;;;;;;;;;;;;;;22.14;35.18;97164.28;2072379;28;1107;-46
2022/03/20 01:17:25;;;;;;;;;;;;;;;22.15;35.24;97160.63;2072862;28;1031;-43
2022/03/20 01:18:27;;;;;;;;;;;;;;;22.15;35.21;97159.78;2080805;28;1167;-45
2022/03/20 01:19:28;;;;;;;;;;;;;;;22.16;35.25;97159.59;2081148;28;1026;-49
2022/03/20 01:20:30;;;;;;;;;;;;;;;22.16;35.12;97156.09;2080975;28;1108;-48
2022/03/20 01:21:32;;;;;;;;;;;;;;;22.15;35.09;97160.63;2080504;28;1089;-53
2022/03/20 01:22:33;;;;;;;;;;;;;;;22.16;35.47;97156.94;2071988;28;1979;-45
2022/03/20 01:23:35;;;;;;;;;;;;;;;22.16;35.37;97156.09;2072876;28;1165;-46
2022/03/20 01:24:37;;;;;;;;;;;;;;;22.17;35.26;97157.75;2080492;28;1656;-45
2022/03/20 01:25:40;;;;;;;;;;;;;;;22.16;35.21;97154.25;2080094;28;1493;-47
2022/03/20 01:26:41;;;;;;;;;;;;;;;22.17;35.35;97158.66;2080933;28;1116;-48
2022/03/20 01:27:43;;;;;;;;;;;;;;;22.17;35.20;97161.31;2081041;28;1043;-45
2022/03/20 01:28:44;;;;;;;;;;;;;;;22.19;35.17;97161.97;2080672;28;1003;-45
2022/03/20 01:29:46;;;;;;;;;;;;;;;22.19;35.19;97153.13;2080738;28;1690;-45
2022/03/20 01:30:47;;;;;;;;;;;;;;;22.18;35.14;97160.31;2079020;28;1454;-43
2022/03/20 01:31:49;;;;;;;;;;;;;;;22.16;35.15;97162.28;2080964;28;1095;-45
2022/03/20 01:32:51;;;;;;;;;;;;;;;22.17;35.12;97157.75;2080692;28;1383;-47
2022/03/20 01:33:53;;;;;;;;;;;;;;;22.17;35.08;97155.09;2081089;28;1163;-47
2022/03/20 01:34:54;;;;;;;;;;;;;;;22.19;35.33;97156.63;2076095;28;1943;-47
2022/03/20 01:35:56;;;;;;;;;;;;;;;22.18;35.35;97149.63;2079327;28;1673;-48
2022/03/20 01:36:58;;;;;;;;;;;;;;;22.18;35.36;97156.81;2080480;28;1160;-46
2022/03/20 01:38:00;;;;;;;;;;;;;;;22.18;35.21;97159.47;2081031;28;1039;-45
2022/03/20 01:39:02;;;;;;;;;;;;;;;22.17;35.47;97153.31;2080932;28;1011;-45
2022/03/20 01:40:04;;;;;;;;;;;;;;;22.18;35.13;97156.81;2081023;28;1096;-47
2022/03/20 01:41:05;;;;;;;;;;;;;;;22.23;35.18;97158.00;2080947;28;1043;-45
2022/03/20 01:42:07;;;;;;;;;;;;;;;22.23;35.15;97158.00;2079943;28;1517;-46
2022/03/20 01:43:09;;;;;;;;;;;;;;;22.23;35.19;97158.00;2080923;28;1926;-47
2022/03/20 01:44:10;;;;;;;;;;;;;;;22.22;35.28;97144.78;2080525;28;1091;-47
2022/03/20 01:45:16;;;;;;;;;;;;;;;22.21;35.26;97160.00;2079702;28;1514;-49
2022/03/20 01:46:18;;;;;;;;;;;;;;;22.22;35.49;97161.66;2074103;28;1560;-46
2022/03/20 01:47:20;;;;;;;;;;;;;;;22.23;35.22;97152.66;2080782;28;1713;-46
2022/03/20 01:48:21;;;;;;;;;;;;;;;22.22;35.49;97161.66;2080686;28;1123;-46
2022/03/20 01:49:23;;;;;;;;;;;;;;;22.22;35.29;97163.50;2080891;28;1063;-45
2022/03/20 01:50:26;;;;;;;;;;;;;;;22.21;35.54;97159.16;2080767;28;1641;-47
2022/03/20 01:52:49;;;;;;;;;;;;;;;22.18;35.38;97165.66;2080740;28;1186;-46
2022/03/20 01:53:50;;;;;;;;;;;;;;;22.19;35.51;97167.31;2081096;28;1120;-45
2022/03/20 01:54:52;;;;;;;;;;;;;;;22.20;35.65;97169.03;2080850;28;1179;-47
2022/03/20 01:55:53;;;;;;;;;;;;;;;22.21;35.35;97173.34;2079309;28;1390;-46
2022/03/20 01:56:55;;;;;;;;;;;;;;;22.22;35.51;97167.00;2076296;28;1252;-46
2022/03/20 01:57:57;;;;;;;;;;;;;;;22.27;35.63;97158.50;2080807;28;1119;-45
2022/03/20 01:59:03;;;;;;;;;;;;;;;22.26;35.36;97167.53;2080504;28;1030;-47
2022/03/20 02:00:08;;;;;;;;;;;;;;;22.23;35.50;97165.19;2081037;28;1010;-46
2022/03/20 02:01:10;;;;;;;;;;;;;;;22.27;35.52;97168.38;2080871;28;1300;-48
2022/03/20 02:02:12;;;;;;;;;;;;;;;22.25;35.51;97170.34;2080658;28;1380;-47
2022/03/20 02:03:14;;;;;;;;;;;;;;;22.28;35.28;97170.03;2080637;28;1922;-46
2022/03/20 02:04:16;;;;;;;;;;;;;;;22.28;35.54;97167.34;2080890;28;1147;-46
2022/03/20 02:05:18;;;;;;;;;;;;;;;22.26;35.54;97172.88;2079553;28;1659;-46
2022/03/20 02:06:19;;;;;;;;;;;;;;;22.26;35.55;97172.03;2079622;28;1481;-46
2022/03/20 02:07:21;;;;;;;;;;;;;;;22.27;35.39;97166.53;2079673;28;1171;-50
2022/03/20 02:08:26;;;;;;;;;;;;;;;22.28;35.28;97164.69;2081064;28;1333;-46
2022/03/20 02:09:27;;;;;;;;;;;;;;;22.28;35.31;97170.03;2082158;28;1695;-49
2022/03/20 02:10:35;;;;;;;;;;;;;;;22.30;35.28;97176.06;2082288;28;1734;-48
2022/03/20 02:11:37;;;;;;;;;;;;;;;22.30;35.17;97166.19;2081605;28;1485;-47
2022/03/20 02:12:39;;;;;;;;;;;;;;;22.29;35.46;97166.38;2082545;28;1004;-47
2022/03/20 02:13:41;;;;;;;;;;;;;;;22.26;35.37;97167.53;2081947;28;1120;-44
2022/03/20 02:14:43;;;;;;;;;;;;;;;22.23;35.42;97163.34;2082413;28;1108;-46
2022/03/20 02:15:44;;;;;;;;;;;;;;;22.20;35.34;97162.84;2080729;28;1683;-46
2022/03/20 02:16:46;;;;;;;;;;;;;;;22.27;35.36;97168.38;2082243;28;1023;-48
2022/03/20 02:17:48;;;;;;;;;;;;;;;22.27;35.42;97163.00;2082631;28;1288;-49
2022/03/20 02:18:50;;;;;;;;;;;;;;;22.25;35.60;97165.00;2077637;28;1147;-45
2022/03/20 02:19:52;;;;;;;;;;;;;;;22.22;35.61;97167.00;2082412;28;1000;-52
2022/03/20 02:20:55;;;;;;;;;;;;;;;22.25;35.43;97165.84;2081855;28;1077;-50
2022/03/20 02:21:57;;;;;;;;;;;;;;;22.24;35.47;97164.19;2082387;28;1007;-49
2022/03/20 02:22:58;;;;;;;;;;;;;;;22.27;35.64;97163.84;2082253;28;1033;-46
2022/03/20 02:24:01;;;;;;;;;;;;;;;22.28;35.59;97170.03;2082199;28;1977;-45
2022/03/20 02:25:05;;;;;;;;;;;;;;;22.29;35.35;97171.72;2081993;28;1700;-46
2022/03/20 02:26:07;;;;;;;;;;;;;;;22.28;35.52;97164.69;2080792;28;1504;-47
2022/03/20 02:27:12;;;;;;;;;;;;;;;22.25;35.43;97167.69;2082347;28;1022;-48
2022/03/20 02:28:14;;;;;;;;;;;;;;;22.33;35.50;97162.34;2081710;28;1166;-48
2022/03/20 02:29:16;;;;;;;;;;;;;;;22.28;35.62;97164.69;2082175;28;1096;-45
2022/03/20 02:30:18;;;;;;;;;;;;;;;22.27;35.46;97163.00;2077678;28;1517;-46
2022/03/20 02:31:21;;;;;;;;;;;;;;;22.26;35.32;97150.66;2082153;28;1112;-45
2022/03/20 02:32:30;;;;;;;;;;;;;;;22.31;35.53;97153.66;2082213;28;1084;-49
2022/03/20 02:33:31;;;;;;;;;;;;;;;22.29;35.48;97155.69;2082234;28;1195;-49
2022/03/20 02:34:33;;;;;;;;;;;;;;;22.27;35.47;97155.00;2082305;28;1088;-46
2022/03/20 02:35:35;;;;;;;;;;;;;;;22.22;35.59;97148.28;2080717;28;1454;-49
2022/03/20 02:36:37;;;;;;;;;;;;;;;22.22;35.71;97156.31;2082180;28;972;-46
2022/03/20 02:37:40;;;;;;;;;;;;;;;22.20;35.49;97152.97;2082125;28;1021;-47
2022/03/20 02:38:41;;;;;;;;;;;;;;;22.21;35.45;97159.16;2073185;28;1167;-48
2022/03/20 02:39:43;;;;;;;;;;;;;;;22.21;35.54;97154.63;2073513;28;1148;-45
2022/03/20 02:40:45;;;;;;;;;;;;;;;22.24;35.78;97153.47;2077576;28;1136;-46
2022/03/20 02:41:47;;;;;;;;;;;;;;;22.23;35.70;97163.34;2080292;28;1482;-45
2022/03/20 02:42:50;;;;;;;;;;;;;;;22.22;35.89;97158.97;2081763;28;1014;-47
2022/03/20 02:43:51;;;;;;;;;;;;;;;22.18;35.96;97157.63;2081513;28;1905;-47
2022/03/20 02:44:54;;;;;;;;;;;;;;;22.21;35.69;97154.63;2085843;28;1509;-49
2022/03/20 02:45:58;;;;;;;;;;;;;;;22.23;35.70;97152.66;2081325;28;1497;-49
2022/03/20 02:47:02;;;;;;;;;;;;;;;22.19;35.80;97151.28;2082169;28;1002;-46
2022/03/20 02:48:04;;;;;;;;;;;;;;;22.20;35.67;97150.31;2081805;28;1132;-48
2022/03/20 02:49:09;;;;;;;;;;;;;;;22.20;35.93;97154.81;2081992;28;1100;-46
2022/03/20 02:50:13;;;;;;;;;;;;;;;22.19;35.66;97156.63;2081485;28;1713;-49
2022/03/20 02:51:17;;;;;;;;;;;;;;;22.18;35.91;97152.28;2082090;28;1069;-47
2022/03/20 02:52:18;;;;;;;;;;;;;;;22.18;35.89;97154.97;2077395;28;1100;-47
2022/03/20 02:53:20;;;;;;;;;;;;;;;22.20;35.81;97152.16;2081895;28;1111;-46
2022/03/20 02:54:23;;;;;;;;;;;;;;;22.22;35.84;97155.47;2081277;28;1090;-49
2022/03/20 02:55:24;;;;;;;;;;;;;;;22.26;35.89;97156.00;2076615;28;1534;-47
2022/03/20 02:56:28;;;;;;;;;;;;;;;22.26;35.84;97151.47;2081909;28;1039;-47
2022/03/20 02:57:30;;;;;;;;;;;;;;;22.26;35.62;97156.00;2081532;28;1027;-47
2022/03/20 02:58:31;;;;;;;;;;;;;;;22.27;35.56;97149.66;2082080;28;1101;-51
2022/03/20 02:59:34;;;;;;;;;;;;;;;22.29;35.66;97156.50;2081978;28;1079;-47
2022/03/20 03:00:36;;;;;;;;;;;;;;;22.30;35.46;97157.34;2082019;28;1175;-47
2022/03/20 03:01:38;;;;;;;;;;;;;;;22.31;35.49;97156.31;2081641;28;1243;-46
2022/03/20 03:02:45;;;;;;;;;;;;;;;22.30;35.63;97152.81;2077462;28;1139;-47
2022/03/20 03:03:47;;;;;;;;;;;;;;;22.29;35.63;97158.34;2081732;28;1907;-47
2022/03/20 03:04:48;;;;;;;;;;;;;;;22.29;35.51;97151.16;2081571;28;1699;-51
2022/03/20 03:05:50;;;;;;;;;;;;;;;22.32;35.66;97152.66;2072654;28;1808;-47
2022/03/20 03:06:51;;;;;;;;;;;;;;;22.31;35.49;97153.66;2073352;28;1084;-47
2022/03/20 03:11:58;;;;;;;;;;;;;;;22.36;35.42;97156.69;2080516;28;1549;-46
2022/03/20 03:12:59;;;;;;;;;;;;;;;22.34;35.62;97153.31;2081532;28;995;-46
2022/03/20 03:15:18;;;;;;;;;;;;;;;22.34;35.39;97148.84;2077177;28;1189;-46
2022/03/20 03:15:22;;;;;;;;;;;;;;;22.34;35.27;97150.66;2080092;28;1815;-49
2022/03/20 03:16:24;;;;;;;;;;;;;;;22.34;35.43;97154.19;2081756;28;1116;-47
2022/03/20 03:17:28;;;;;;;;;;;;;;;22.31;35.43;97153.66;2080768;28;1104;-46
2022/03/20 03:18:30;;;;;;;;;;;;;;;22.30;35.47;97147.47;2081784;28;1128;-52
2022/03/20 03:19:32;;;;;;;;;;;;;;;22.31;35.68;97154.47;2081858;28;1113;-53
2022/03/20 03:20:33;;;;;;;;;;;;;;;22.32;35.47;97158.00;2081711;28;1175;-47
2022/03/20 03:21:35;;;;;;;;;;;;;;;22.29;35.67;97144.97;2081851;28;1048;-48
2022/03/20 03:22:37;;;;;;;;;;;;;;;22.30;35.48;97155.50;2081956;28;1069;-48
2022/03/20 03:23:38;;;;;;;;;;;;;;;22.34;35.45;97153.31;2080943;28;1547;-48
2022/03/20 03:24:40;;;;;;;;;;;;;;;22.31;35.75;97153.66;2077619;28;1906;-50
2022/03/20 03:25:42;;;;;;;;;;;;;;;22.32;35.55;97158.00;2080309;28;1692;-48
2022/03/20 03:26:43;;;;;;;;;;;;;;;22.31;35.62;97153.66;2081543;28;1170;-50
2022/03/20 03:27:45;;;;;;;;;;;;;;;22.38;35.66;97162.69;2081319;28;1211;-46
2022/03/20 03:28:46;;;;;;;;;;;;;;;22.42;34.98;97156.84;2081758;28;995;-52
2022/03/20 03:29:48;;;;;;;;;;;;;;;22.47;35.24;97153.69;2081556;28;1548;-46
2022/03/20 03:30:50;;;;;;;;;;;;;;;22.47;35.17;97164.38;2081856;28;1037;-49
2022/03/20 03:31:51;;;;;;;;;;;;;;;22.49;35.10;97156.22;2081819;28;1100;-49
2022/03/20 03:32:53;;;;;;;;;;;;;;;22.49;35.14;97159.72;2081682;28;1146;-48
2022/03/20 03:36:36;;;;;;;;;;;;;;;22.45;35.20;97161.88;2081199;28;1237;-50
2022/03/20 03:37:37;;;;;;;;;;;;;;;22.45;35.34;97158.34;2081505;28;1159;-47
2022/03/20 03:38:39;;;;;;;;;;;;;;;22.44;35.51;97159.38;2081573;28;1107;-47
2022/03/20 03:39:41;;;;;;;;;;;;;;;22.41;35.36;97155.19;2081714;28;992;-48
2022/03/20 03:40:44;;;;;;;;;;;;;;;22.41;35.67;97165.03;2072330;28;1294;-47
2022/03/20 03:41:45;;;;;;;;;;;;;;;22.40;35.71;97161.53;2072632;28;1509;-48
2022/03/20 03:42:47;;;;;;;;;;;;;;;22.35;35.64;97145.16;2081089;28;1120;-50
2022/03/20 03:43:49;;;;;;;;;;;;;;;22.44;35.54;97167.38;2081725;28;1062;-47
2022/03/20 03:44:51;;;;;;;;;;;;;;;22.43;35.67;97163.06;2080460;28;1965;-52
2022/03/20 03:45:56;;;;;;;;;;;;;;;22.42;35.70;97161.34;2081549;28;1046;-49
2022/03/20 03:46:58;;;;;;;;;;;;;;;22.41;35.57;97159.69;2076224;28;2332;-48
2022/03/20 03:47:59;;;;;;;;;;;;;;;22.36;35.77;97151.31;2081506;28;1190;-47
2022/03/20 03:49:01;;;;;;;;;;;;;;;22.39;35.74;97156.34;2072932;28;1742;-47
2022/03/20 03:50:03;;;;;;;;;;;;;;;22.37;35.77;97153.84;2072642;28;1014;-45
2022/03/20 03:51:04;;;;;;;;;;;;;;;22.37;35.71;97158.34;2081534;28;1112;-44
2022/03/20 03:52:06;;;;;;;;;;;;;;;22.38;35.54;97165.38;2081568;28;1178;-45
2022/03/20 03:53:09;;;;;;;;;;;;;;;22.37;35.70;97169.91;2081588;28;1002;-45
2022/03/20 03:54:12;;;;;;;;;;;;;;;22.38;35.85;97168.06;2081622;28;998;-46
2022/03/20 03:55:14;;;;;;;;;;;;;;;22.37;35.78;97166.34;2080604;28;1679;-45
2022/03/20 03:56:15;;;;;;;;;;;;;;;22.35;35.77;97168.38;2081581;28;1026;-44
2022/03/20 03:57:20;;;;;;;;;;;;;;;22.35;35.86;97163.88;2080743;28;1183;-45
2022/03/20 03:58:21;;;;;;;;;;;;;;;22.36;36.07;97167.38;2076543;28;1144;-45
2022/03/20 03:59:23;;;;;;;;;;;;;;;22.35;35.93;97171.88;2081432;28;1033;-45
2022/03/20 04:00:26;;;;;;;;;;;;;;;22.35;35.72;97174.56;2081283;28;1008;-50
2022/03/20 04:01:27;;;;;;;;;;;;;;;22.33;36.01;97179.22;2080849;28;1238;-44
2022/03/20 04:02:29;;;;;;;;;;;;;;;22.33;35.92;97171.22;2081454;28;1283;-45
2022/03/20 04:03:31;;;;;;;;;;;;;;;22.35;35.96;97163.03;2081410;28;1175;-50
2022/03/20 04:04:33;;;;;;;;;;;;;;;22.34;35.95;97164.00;2080746;28;1894;-50
2022/03/20 04:05:34;;;;;;;;;;;;;;;22.32;35.92;97156.19;2080749;28;1486;-45
2022/03/20 04:06:36;;;;;;;;;;;;;;;22.35;36.07;97160.38;2081521;28;1107;-49
2022/03/20 04:07:38;;;;;;;;;;;;;;;22.33;36.06;97162.34;2081084;28;1128;-49
2022/03/20 04:08:39;;;;;;;;;;;;;;;22.35;36.05;97168.38;2076814;28;1039;-46
2022/03/20 04:09:41;;;;;;;;;;;;;;;22.33;35.90;97167.69;2080886;28;1428;-45
2022/03/20 04:10:43;;;;;;;;;;;;;;;22.35;36.07;97161.19;2081416;28;1026;-47
2022/03/20 04:11:44;;;;;;;;;;;;;;;22.34;35.94;97158.66;2079435;28;1423;-48
2022/03/20 04:12:46;;;;;;;;;;;;;;;22.35;36.07;97165.72;2081358;28;999;-47
2022/03/20 04:13:47;;;;;;;;;;;;;;;22.33;35.91;97162.34;2081493;28;1074;-46
2022/03/20 04:14:49;;;;;;;;;;;;;;;22.33;35.92;97165.03;2081349;28;1104;-47
2022/03/20 04:15:52;;;;;;;;;;;;;;;22.34;35.86;97164.00;2081286;28;1685;-46
2022/03/20 04:16:54;;;;;;;;;;;;;;;22.35;35.92;97157.69;2080338;28;1535;-50
2022/03/20 04:17:58;;;;;;;;;;;;;;;22.35;36.11;97161.19;2081250;28;1000;-45
2022/03/20 04:18:59;;;;;;;;;;;;;;;22.35;36.13;97155.00;2080898;28;1031;-47
2022/03/20 04:20:01;;;;;;;;;;;;;;;22.35;36.12;97157.69;2076852;28;1557;-46
2022/03/20 04:21:03;;;;;;;;;;;;;;;22.36;35.93;97162.84;2080443;28;1676;-47
2022/03/20 04:22:05;;;;;;;;;;;;;;;22.32;36.22;97160.69;2081542;28;1076;-49
2022/03/20 04:24:28;;;;;;;;;;;;;;;22.38;35.99;97166.22;2073284;28;1919;-46
2022/03/20 04:25:30;;;;;;;;;;;;;;;22.72;36.75;97167.09;2073184;28;1147;-53
2022/03/20 04:26:33;;;;;;;;;;;;;;;22.87;35.91;97160.88;2072904;28;969;-49
2022/03/20 04:27:34;;;;;;;;;;;;;;;22.87;35.45;97158.22;2072867;28;1124;-56
2022/03/20 04:28:36;;;;;;;;;;;;;;;22.81;35.92;97163.41;2073115;28;1179;-55
2022/03/20 04:29:37;;;;;;;;;;;;;;;22.72;35.88;97162.56;2078604;28;1542;-53
2022/03/20 04:30:39;;;;;;;;;;;;;;;22.62;36.10;97167.25;2076359;28;1712;-53
2022/03/20 04:31:40;;;;;;;;;;;;;;;22.55;36.13;97172.44;2079349;28;1467;-53
2022/03/20 04:32:43;;;;;;;;;;;;;;;22.46;36.25;97165.41;2081245;28;1670;-54
2022/03/20 04:33:54;;;;;;;;;;;;;;;22.42;36.27;97180.91;2074985;28;1691;-55
2022/03/20 04:34:56;;;;;;;;;;;;;;;22.34;35.25;97180.06;2076761;28;1546;-55
2022/03/20 04:35:58;;;;;;;;;;;;;;;20.04;27.14;97182.09;2081439;28;1053;-50
2022/03/20 04:37:00;;;;;;;;;;;;;;;18.24;29.55;97174.81;2081299;28;994;-52
2022/03/20 04:38:04;;;;;;;;;;;;;;;17.21;31.12;97175.00;2081201;28;1120;-51
2022/03/20 04:39:06;;;;;;;;;;;;;;;16.71;31.95;97175.63;2081243;28;1057;-52
2022/03/20 04:40:08;;;;;;;;;;;;;;;16.24;31.94;97187.50;2080906;28;1630;-58
2022/03/20 04:41:10;;;;;;;;;;;;;;;15.89;31.76;97185.91;2078919;28;1672;-54
2022/03/20 04:42:13;;;;;;;;;;;;;;;15.78;32.45;97184.09;2075032;28;1620;-55
2022/03/20 04:43:17;;;;;;;;;;;;;;;16.39;33.79;97188.88;2080420;28;1675;-54
2022/03/20 04:44:19;;;;;;;;;;;;;;;17.53;33.08;97185.47;2080906;28;1625;-59
2022/03/20 04:45:20;;;;;;;;;;;;;;;18.42;32.46;97189.13;2080874;28;1977;-56
2022/03/20 04:46:22;;;;;;;;;;;;;;;18.99;30.02;97175.97;2080097;28;1560;-56
2022/03/20 04:59:26;;;;;;;;;;;;;;;21.18;29.84;97185.00;2081294;28;1034;-56
2022/03/20 05:00:32;;;;;;;;;;;;;;;21.19;30.28;97190.16;2081130;28;1116;-54
2022/03/20 05:01:34;;;;;;;;;;;;;;;21.21;30.38;97187.34;2079929;28;1525;-56
2022/03/20 05:02:36;;;;;;;;;;;;;;;21.23;30.04;97191.53;2081186;28;1048;-55
2022/03/20 05:03:38;;;;;;;;;;;;;;;21.26;30.08;97193.91;2075285;28;1516;-53
2022/03/20 05:04:40;;;;;;;;;;;;;;;21.29;30.35;97188.25;2079783;28;2021;-56
2022/03/20 05:05:41;;;;;;;;;;;;;;;21.31;30.38;97183.56;2080773;28;1645;-53
2022/03/20 05:06:43;;;;;;;;;;;;;;;21.33;30.77;97183.41;2080667;28;1617;-55
2022/03/20 05:07:45;;;;;;;;;;;;;;;21.34;30.65;97185.94;2080752;28;1548;-55
2022/03/20 05:08:46;;;;;;;;;;;;;;;21.38;30.80;97188.31;2081114;28;1077;-56
2022/03/20 05:13:48;;;;;;;;;;;;;;;21.43;31.13;97194.00;2078775;28;1884;-56
2022/03/20 05:14:50;;;;;;;;;;;;;;;21.43;31.17;97188.66;2075587;28;1803;-55
2022/03/20 05:15:57;;;;;;;;;;;;;;;21.45;31.14;97192.84;2080659;28;1314;-56
2022/03/20 05:17:00;;;;;;;;;;;;;;;21.45;31.32;97192.03;2080929;28;1096;-55
2022/03/20 05:18:05;;;;;;;;;;;;;;;21.45;31.02;97186.69;2080648;28;1124;-56
2022/03/20 05:19:06;;;;;;;;;;;;;;;21.44;31.42;97191.19;2080951;28;1607;-56
2022/03/20 05:20:08;;;;;;;;;;;;;;;21.44;31.14;97193.03;2080862;28;1155;-56
2022/03/20 05:21:10;;;;;;;;;;;;;;;21.45;31.33;97192.84;2080364;28;1250;-56
2022/03/20 05:22:12;;;;;;;;;;;;;;;21.46;31.33;97186.53;2077370;28;1430;-52
2022/03/20 05:23:13;;;;;;;;;;;;;;;21.46;31.45;97193.69;2078219;28;1550;-56
2022/03/20 05:24:16;;;;;;;;;;;;;;;21.47;31.40;97187.38;2077469;28;1697;-56
2022/03/20 05:25:18;;;;;;;;;;;;;;;21.46;31.55;97197.22;2082813;28;1984;-56
2022/03/20 05:26:19;;;;;;;;;;;;;;;21.47;31.64;97198.06;2077195;28;1649;-55
2022/03/20 05:27:21;;;;;;;;;;;;;;;21.46;31.48;97199.03;2080584;28;1627;-56
2022/03/20 05:28:23;;;;;;;;;;;;;;;21.46;31.52;97197.22;2079555;28;1736;-56
2022/03/20 05:29:24;;;;;;;;;;;;;;;21.46;31.34;97196.38;2081060;28;1010;-56
2022/03/20 05:30:26;;;;;;;;;;;;;;;21.46;31.55;97205.25;2080837;28;1711;-56
2022/03/20 05:31:27;;;;;;;;;;;;;;;18.13;21.26;97202.38;2080763;28;1142;-55
2022/03/20 05:32:30;;;;;;;;;;;;;;;14.86;23.42;97207.06;2080864;28;1103;-57
2022/03/20 05:33:32;;;;;;;;;;;;;;;13.23;25.56;97212.59;2080027;28;1629;-59
2022/03/20 05:34:34;;;;;;;;;;;;;;;12.30;24.49;97209.19;2080540;28;1654;-57
2022/03/20 05:35:39;;;;;;;;;;;;;;;12.03;25.27;97214.41;2080325;28;1596;-58
2022/03/20 05:36:41;;;;;;;;;;;;;;;11.16;25.48;97205.75;2077451;28;1262;-52
2022/03/20 05:37:43;;;;;;;;;;;;;;;10.84;25.79;97217.31;2080020;28;1432;-53
2022/03/20 05:38:45;;;;;;;;;;;;;;;10.17;24.83;97211.53;2080424;28;1723;-51
2022/03/20 05:39:46;;;;;;;;;;;;;;;9.80;25.45;97218.84;2080800;28;1664;-50
2022/03/20 05:40:48;;;;;;;;;;;;;;;9.42;25.56;97213.88;2080897;28;1709;-61
2022/03/20 05:41:51;;;;;;;;;;;;;;;9.03;26.00;97215.06;2082143;28;1710;-54
2022/03/20 05:42:53;;;;;;;;;;;;;;;10.32;27.93;97205.44;2081672;28;1649;-54
2022/03/20 05:43:54;;;;;;;;;;;;;;;12.24;27.25;97213.06;2082623;28;1166;-51
2022/03/20 05:44:56;;;;;;;;;;;;;;;13.87;25.70;97208.13;2082481;28;1747;-51
2022/03/20 05:45:58;;;;;;;;;;;;;;;15.11;23.99;97199.91;2082065;28;1930;-53
2022/03/20 05:47:01;;;;;;;;;;;;;;;16.07;24.40;97213.53;2078842;28;1759;-52
2022/03/20 05:48:02;;;;;;;;;;;;;;;16.79;24.00;97212.97;2068834;28;1078;-53
2022/03/20 05:49:05;;;;;;;;;;;;;;;17.31;24.11;97215.69;2082135;28;1127;-52
2022/03/20 05:50:08;;;;;;;;;;;;;;;17.74;23.68;97220.78;2073463;28;1108;-53
2022/03/20 05:51:09;;;;;;;;;;;;;;;18.08;23.28;97217.88;2074002;28;1167;-60
2022/03/20 05:52:13;;;;;;;;;;;;;;;15.56;23.01;97218.47;2082528;28;1758;-50
2022/03/20 05:53:14;;;;;;;;;;;;;;;14.27;25.92;97214.97;2082571;28;1085;-50